createdAt,value
2022-11-29T00:01:33.183Z,7.50
2022-11-29T00:04:01.546Z,6.93
2022-11-29T00:06:31.196Z,5.85
2022-11-29T00:09:01.063Z,5.75
2022-11-29T00:11:44.489Z,5.55
2022-11-29T00:14:14.254Z,5.07
2022-11-29T00:16:43.477Z,5.55
2022-11-29T00:19:12.982Z,4.85
2022-11-29T00:21:40.789Z,5.00
2022-11-29T00:24:09.980Z,4.78
2022-11-29T00:26:37.891Z,4.35
2022-11-29T00:29:06.510Z,4.38
2022-11-29T00:31:35.129Z,4.97
2022-11-29T00:34:06.816Z,5.15
2022-11-29T00:36:34.803Z,4.18
2022-11-29T00:39:03.131Z,5.65
2022-11-29T00:41:30.905Z,5.88
2022-11-29T00:43:58.649Z,4.82
2022-11-29T00:46:26.419Z,5.93
2022-11-29T00:48:54.239Z,5.10
2022-11-29T00:51:23.432Z,5.97
2022-11-29T00:53:51.242Z,6.00
2022-11-29T00:56:18.952Z,5.43
2022-11-29T00:58:48.424Z,5.10
2022-11-29T01:01:16.588Z,6.20
2022-11-29T01:03:44.457Z,4.45
2022-11-29T01:06:14.310Z,4.40
2022-11-29T01:08:45.491Z,5.22
2022-11-29T01:11:18.715Z,4.60
2022-11-29T01:13:46.531Z,6.75
2022-11-29T01:16:15.695Z,6.10
2022-11-29T01:18:43.501Z,4.43
2022-11-29T01:21:13.982Z,5.03
2022-11-29T01:23:44.266Z,4.97
2022-11-29T01:26:14.082Z,4.55
2022-11-29T01:28:42.638Z,4.72
2022-11-29T01:31:12.588Z,6.20
2022-11-29T01:33:40.714Z,5.63
2022-11-29T01:36:09.822Z,4.68
2022-11-29T01:38:37.762Z,5.78
2022-11-29T01:41:10.335Z,4.97
2022-11-29T01:43:56.461Z,5.30
2022-11-29T01:46:24.508Z,5.72
2022-11-29T01:48:56.014Z,5.68
2022-11-29T01:51:24.117Z,4.07
2022-11-29T01:53:51.881Z,5.38
2022-11-29T01:56:21.813Z,5.25
2022-11-29T01:58:49.530Z,4.38
2022-11-29T02:01:17.312Z,4.93
2022-11-29T02:03:45.036Z,4.07
2022-11-29T02:06:12.814Z,4.65
2022-11-29T02:08:42.806Z,4.03
2022-11-29T02:11:30.162Z,4.65
2022-11-29T02:14:12.178Z,4.43
2022-11-29T02:16:56.732Z,4.00
2022-11-29T02:19:50.282Z,4.70
2022-11-29T02:22:25.318Z,4.15
2022-11-29T02:25:14.288Z,4.78
2022-11-29T02:28:12.079Z,3.90
2022-11-29T02:30:56.190Z,4.43
2022-11-29T02:33:43.383Z,4.97
2022-11-29T02:36:41.078Z,3.70
2022-11-29T02:39:35.147Z,3.25
2022-11-29T02:42:25.163Z,2.80
2022-11-29T02:45:03.930Z,3.30
2022-11-29T02:47:48.805Z,3.03
2022-11-29T02:50:32.534Z,3.20
2022-11-29T02:53:06.960Z,2.75
2022-11-29T02:55:42.591Z,2.65
2022-11-29T02:58:20.025Z,3.17
2022-11-29T03:00:57.914Z,2.45
2022-11-29T03:03:32.544Z,2.88
2022-11-29T03:06:10.573Z,3.33
2022-11-29T03:08:47.076Z,2.95
2022-11-29T03:11:25.071Z,3.30
2022-11-29T03:14:04.686Z,2.92
2022-11-29T03:16:43.846Z,2.65
2022-11-29T03:19:31.929Z,3.00
2022-11-29T03:22:11.929Z,2.50
2022-11-29T03:24:50.978Z,2.85
2022-11-29T03:27:24.612Z,2.67
2022-11-29T03:29:57.765Z,2.80
2022-11-29T03:32:30.877Z,2.88
2022-11-29T03:35:07.399Z,2.33
2022-11-29T03:37:44.862Z,2.45
2022-11-29T03:40:15.334Z,2.20
2022-11-29T03:42:51.405Z,2.45
2022-11-29T03:45:25.730Z,2.92
2022-11-29T03:48:00.669Z,3.25
2022-11-29T03:50:35.194Z,3.00
2022-11-29T03:53:08.712Z,2.60
2022-11-29T03:55:50.577Z,2.38
2022-11-29T03:58:38.367Z,2.92
2022-11-29T04:01:32.242Z,2.63
2022-11-29T04:04:20.863Z,3.20
2022-11-29T04:07:05.770Z,3.20
2022-11-29T04:09:58.102Z,2.60
2022-11-29T04:12:44.338Z,3.15
2022-11-29T04:15:36.222Z,3.05
2022-11-29T04:18:29.878Z,2.78
2022-11-29T04:21:18.212Z,2.45
2022-11-29T04:23:59.522Z,2.90
2022-11-29T04:26:54.311Z,2.90
2022-11-29T04:29:45.238Z,2.50
2022-11-29T04:32:29.954Z,2.03
2022-11-29T04:35:15.614Z,2.72
2022-11-29T04:38:06.854Z,3.00
2022-11-29T04:40:51.918Z,2.20
2022-11-29T04:43:36.325Z,2.33
2022-11-29T04:46:20.249Z,2.17
2022-11-29T04:49:02.633Z,2.88
2022-11-29T04:51:44.316Z,2.50
2022-11-29T04:54:24.034Z,2.42
2022-11-29T04:56:55.358Z,2.08
2022-11-29T04:59:29.434Z,2.45
2022-11-29T05:02:06.189Z,1.90
2022-11-29T05:04:41.863Z,2.03
2022-11-29T05:07:19.489Z,2.30
2022-11-29T05:10:01.338Z,2.20
2022-11-29T05:12:33.950Z,2.20
2022-11-29T05:15:39.604Z,2.40
2022-11-29T05:18:15.075Z,2.67
2022-11-29T05:20:47.915Z,1.95
2022-11-29T05:23:30.778Z,2.10
2022-11-29T05:26:04.905Z,1.80
2022-11-29T05:28:42.357Z,2.08
2022-11-29T05:31:25.576Z,2.33
2022-11-29T05:34:09.386Z,1.98
2022-11-29T05:36:44.330Z,2.10
2022-11-29T05:39:31.526Z,1.83
2022-11-29T05:42:14.136Z,2.63
2022-11-29T05:44:47.306Z,3.00
2022-11-29T05:47:28.255Z,3.47
2022-11-29T05:50:06.461Z,2.33
2022-11-29T05:52:48.314Z,2.35
2022-11-29T05:55:25.978Z,2.58
2022-11-29T05:57:58.601Z,2.53
2022-11-29T06:00:31.289Z,3.30
2022-11-29T06:03:09.158Z,2.40
2022-11-29T06:05:40.914Z,2.60
2022-11-29T06:08:14.316Z,2.50
2022-11-29T06:10:56.310Z,3.05
2022-11-29T06:13:34.645Z,3.05
2022-11-29T06:16:17.442Z,2.80
2022-11-29T06:19:01.745Z,2.75
2022-11-29T06:21:39.024Z,2.92
2022-11-29T06:24:25.866Z,3.30
2022-11-29T06:27:15.669Z,4.57
2022-11-29T06:29:50.378Z,2.65
2022-11-29T06:32:30.754Z,3.30
2022-11-29T06:35:04.523Z,3.30
2022-11-29T06:37:38.982Z,3.63
2022-11-29T06:40:10.786Z,2.47
2022-11-29T06:42:38.732Z,2.80
2022-11-29T06:45:07.525Z,3.63
2022-11-29T06:47:43.461Z,3.25
2022-11-29T06:50:32.743Z,3.50
2022-11-29T06:53:10.186Z,3.63
2022-11-29T06:55:58.893Z,3.28
2022-11-29T06:58:42.723Z,3.63
2022-11-29T07:01:20.854Z,2.80
2022-11-29T07:04:02.118Z,3.60
2022-11-29T07:06:34.269Z,3.28
2022-11-29T07:09:05.139Z,4.35
2022-11-29T07:11:33.658Z,3.65
2022-11-29T07:14:01.966Z,3.20
2022-11-29T07:16:34.505Z,3.78
2022-11-29T07:19:10.444Z,3.42
2022-11-29T07:21:50.834Z,3.55
2022-11-29T07:24:32.344Z,4.97
2022-11-29T07:27:07.482Z,3.72
2022-11-29T07:29:40.940Z,4.60
2022-11-29T07:32:17.836Z,3.15
2022-11-29T07:34:53.149Z,3.47
2022-11-29T07:37:29.635Z,3.88
2022-11-29T07:40:03.984Z,3.63
2022-11-29T07:42:39.950Z,3.10
2022-11-29T07:45:17.531Z,2.78
2022-11-29T07:47:46.176Z,3.95
2022-11-29T07:50:14.003Z,3.13
2022-11-29T07:52:43.267Z,3.75
2022-11-29T07:55:18.489Z,3.10
2022-11-29T07:57:46.811Z,3.25
2022-11-29T08:00:15.677Z,3.38
2022-11-29T08:02:43.871Z,3.20
2022-11-29T08:05:12.735Z,4.43
2022-11-29T08:07:42.823Z,3.90
2022-11-29T08:10:13.732Z,2.75
2022-11-29T08:12:44.613Z,3.72
2022-11-29T08:15:14.951Z,2.88
2022-11-29T08:17:42.718Z,3.47
2022-11-29T08:20:12.832Z,4.35
2022-11-29T08:22:40.944Z,3.97
2022-11-29T08:25:11.411Z,4.35
2022-11-29T08:27:40.358Z,4.10
2022-11-29T08:30:12.137Z,4.78
2022-11-29T08:32:41.097Z,3.70
2022-11-29T08:35:09.947Z,3.60
2022-11-29T08:37:38.255Z,4.55
2022-11-29T08:40:10.964Z,3.95
2022-11-29T08:42:38.874Z,3.90
2022-11-29T08:45:10.687Z,4.35
2022-11-29T08:47:42.218Z,5.72
2022-11-29T08:50:14.510Z,4.10
2022-11-29T08:52:57.758Z,3.72
2022-11-29T08:55:28.721Z,4.28
2022-11-29T08:58:03.144Z,4.38
2022-11-29T09:00:31.344Z,3.50
2022-11-29T09:03:19.411Z,3.90
2022-11-29T09:05:47.194Z,4.05
2022-11-29T09:08:15.232Z,4.45
2022-11-29T09:10:44.882Z,4.47
2022-11-29T09:13:13.294Z,5.15
2022-11-29T09:15:43.302Z,4.68
2022-11-29T09:18:11.328Z,5.55
2022-11-29T09:20:39.105Z,5.82
2022-11-29T09:23:07.427Z,5.63
2022-11-29T09:25:35.237Z,4.53
2022-11-29T09:28:04.419Z,4.35
2022-11-29T09:30:34.899Z,5.88
2022-11-29T09:33:04.762Z,4.70
2022-11-29T09:35:33.073Z,4.07
2022-11-29T09:38:00.803Z,5.07
2022-11-29T09:40:34.602Z,5.68
2022-11-29T09:43:14.236Z,5.45
2022-11-29T09:45:44.947Z,5.35
2022-11-29T09:48:36.138Z,6.80
2022-11-29T09:51:14.439Z,7.00
2022-11-29T09:53:57.372Z,6.53
2022-11-29T09:56:31.580Z,7.82
2022-11-29T09:59:04.928Z,5.07
2022-11-29T10:01:37.306Z,6.00
2022-11-29T10:04:13.059Z,6.60
2022-11-29T10:06:44.211Z,7.25
2022-11-29T10:09:19.290Z,8.45
2022-11-29T10:11:59.047Z,8.20
2022-11-29T10:14:30.788Z,8.30
2022-11-29T10:17:05.711Z,9.48
2022-11-29T10:19:38.343Z,8.65
2022-11-29T10:22:13.107Z,10.90
2022-11-29T10:24:43.995Z,10.35
2022-11-29T10:27:19.686Z,11.43
2022-11-29T10:29:55.222Z,10.38
2022-11-29T10:32:27.039Z,12.57
2022-11-29T10:34:57.509Z,12.15
2022-11-29T10:37:26.071Z,11.73
2022-11-29T10:39:58.668Z,12.57
2022-11-29T10:42:42.740Z,10.77
2022-11-29T10:45:20.298Z,9.85
2022-11-29T10:47:50.663Z,9.00
2022-11-29T10:50:22.108Z,9.73
2022-11-29T10:52:53.631Z,9.30
2022-11-29T10:55:25.337Z,8.80
2022-11-29T10:58:09.433Z,9.68
2022-11-29T11:00:47.418Z,9.00
2022-11-29T11:03:17.953Z,9.93
2022-11-29T11:06:01.295Z,11.63
2022-11-29T11:08:34.681Z,11.25
2022-11-29T11:11:04.670Z,11.32
2022-11-29T11:13:35.926Z,12.20
2022-11-29T11:16:15.375Z,11.30
2022-11-29T11:18:44.397Z,10.93
2022-11-29T11:21:14.121Z,10.23
2022-11-29T11:23:54.798Z,9.98
2022-11-29T11:26:23.980Z,11.05
2022-11-29T11:28:55.750Z,9.60
2022-11-29T11:31:35.082Z,10.65
2022-11-29T11:34:24.170Z,10.40
2022-11-29T11:36:52.058Z,10.63
2022-11-29T11:39:21.971Z,10.38
2022-11-29T11:42:04.840Z,11.68
2022-11-29T11:44:53.623Z,12.93
2022-11-29T11:47:25.770Z,13.15
2022-11-29T11:49:56.850Z,14.43
2022-11-29T11:52:28.292Z,14.80
2022-11-29T11:55:02.514Z,13.38
2022-11-29T11:57:32.692Z,16.10
2022-11-29T12:00:06.601Z,13.40
2022-11-29T12:02:45.737Z,13.43
2022-11-29T12:05:20.090Z,12.30
2022-11-29T12:08:07.843Z,12.95
2022-11-29T12:10:40.295Z,13.25
2022-11-29T12:13:14.924Z,13.27
2022-11-29T12:15:46.144Z,13.98
2022-11-29T12:18:21.494Z,14.07
2022-11-29T12:20:55.380Z,14.02
2022-11-29T12:23:31.882Z,14.70
2022-11-29T12:26:06.088Z,14.05
2022-11-29T12:28:38.307Z,15.02
2022-11-29T12:31:13.991Z,16.25
2022-11-29T12:33:50.615Z,14.90
2022-11-29T12:36:31.783Z,15.75
2022-11-29T12:39:16.034Z,15.57
2022-11-29T12:41:54.008Z,15.90
2022-11-29T12:44:38.888Z,14.68
2022-11-29T12:50:22.805Z,14.65
2022-11-29T12:52:57.953Z,14.60
2022-11-29T12:55:32.619Z,14.00
2022-11-29T12:58:11.592Z,13.52
2022-11-29T13:00:47.455Z,13.48
2022-11-29T13:03:25.061Z,14.13
2022-11-29T13:06:07.344Z,15.00
2022-11-29T13:08:51.127Z,16.17
2022-11-29T13:11:24.418Z,15.30
2022-11-29T13:14:13.858Z,16.13
2022-11-29T13:16:56.378Z,18.02
2022-11-29T13:19:30.567Z,16.83
2022-11-29T13:22:08.459Z,16.55
2022-11-29T13:24:43.141Z,15.35
2022-11-29T13:27:20.731Z,15.52
2022-11-29T13:29:50.018Z,18.27
2022-11-29T13:32:31.138Z,18.67
2022-11-29T13:35:08.390Z,19.50
2022-11-29T13:37:48.368Z,26.42
2022-11-29T13:40:26.898Z,21.08
2022-11-29T13:43:06.264Z,20.45
2022-11-29T13:45:41.204Z,21.80
2022-11-29T13:48:27.946Z,20.50
2022-11-29T13:50:56.554Z,20.55
2022-11-29T13:53:29.456Z,18.42
2022-11-29T13:56:01.671Z,18.70
2022-11-29T13:58:35.987Z,23.45
2022-11-29T14:01:08.524Z,20.83
2022-11-29T14:03:39.516Z,22.60
2022-11-29T14:06:18.267Z,20.25
2022-11-29T14:09:19.596Z,17.85
2022-11-29T14:11:50.072Z,21.90
2022-11-29T14:14:26.798Z,20.42
2022-11-29T14:16:58.668Z,23.13
2022-11-29T14:19:33.398Z,17.75
2022-11-29T14:22:17.332Z,17.38
2022-11-29T14:24:58.230Z,16.65
2022-11-29T14:27:56.086Z,18.58
2022-11-29T14:30:40.234Z,19.83
2022-11-29T14:33:29.412Z,20.15
2022-11-29T14:36:08.908Z,20.70
2022-11-29T14:38:44.454Z,19.30
2022-11-29T14:41:23.314Z,19.48
2022-11-29T14:43:51.546Z,19.42
2022-11-29T14:46:31.617Z,17.25
2022-11-29T14:49:02.426Z,19.10
2022-11-29T14:51:34.379Z,18.40
2022-11-29T14:54:08.989Z,19.88
2022-11-29T14:56:42.367Z,19.33
2022-11-29T14:59:43.083Z,18.35
2022-11-29T15:02:26.666Z,17.38
2022-11-29T15:04:58.064Z,18.40
2022-11-29T15:07:30.555Z,19.23
2022-11-29T15:10:02.091Z,20.85
2022-11-29T15:12:36.618Z,20.02
2022-11-29T15:15:13.534Z,18.75
2022-11-29T15:17:52.182Z,19.48
2022-11-29T15:20:36.173Z,21.45
2022-11-29T15:23:07.150Z,19.00
2022-11-29T15:25:36.342Z,20.80
2022-11-29T15:28:08.497Z,21.00
2022-11-29T15:30:38.302Z,20.83
2022-11-29T15:33:08.759Z,22.40
2022-11-29T15:35:37.610Z,23.52
2022-11-29T15:38:05.507Z,23.88
2022-11-29T15:40:35.436Z,20.27
2022-11-29T15:43:15.050Z,21.30
2022-11-29T15:45:48.149Z,21.90
2022-11-29T15:48:20.027Z,23.05
2022-11-29T15:50:54.459Z,24.85
2022-11-29T15:53:26.615Z,23.65
2022-11-29T15:55:57.794Z,21.67
2022-11-29T15:58:28.647Z,22.98
2022-11-29T16:00:57.796Z,24.00
2022-11-29T16:03:29.824Z,23.60
2022-11-29T16:06:04.180Z,23.33
2022-11-29T16:08:35.712Z,27.17
2022-11-29T16:11:03.474Z,27.92
2022-11-29T16:13:37.627Z,24.60
2022-11-29T16:16:14.962Z,23.80
2022-11-29T16:18:45.108Z,21.60
2022-11-29T16:21:25.354Z,19.42
2022-11-29T16:23:54.444Z,20.70
2022-11-29T16:26:24.627Z,20.55
2022-11-29T16:28:56.107Z,22.45
2022-11-29T16:31:31.278Z,22.02
2022-11-29T16:34:08.114Z,21.55
2022-11-29T16:36:36.650Z,22.50
2022-11-29T16:39:08.348Z,23.92
2022-11-29T16:41:38.015Z,27.35
2022-11-29T16:44:29.772Z,24.08
2022-11-29T16:47:12.249Z,25.92
2022-11-29T16:49:40.038Z,21.35
2022-11-29T16:52:24.865Z,22.15
2022-11-29T16:54:52.958Z,25.75
2022-11-29T16:57:21.215Z,20.98
2022-11-29T16:59:50.783Z,20.60
2022-11-29T17:02:19.216Z,22.67
2022-11-29T17:04:47.246Z,21.63
2022-11-29T17:07:27.012Z,20.55
2022-11-29T17:09:55.206Z,22.70
2022-11-29T17:12:22.926Z,20.17
2022-11-29T17:14:51.938Z,19.52
2022-11-29T17:17:20.986Z,24.05
2022-11-29T17:19:48.774Z,21.02
2022-11-29T17:22:16.522Z,19.83
2022-11-29T17:24:48.024Z,18.15
2022-11-29T17:27:16.356Z,20.50
2022-11-29T17:29:44.030Z,20.45
2022-11-29T17:32:13.144Z,24.17
2022-11-29T17:34:40.958Z,21.65
2022-11-29T17:37:08.679Z,21.20
2022-11-29T17:39:36.458Z,21.95
2022-11-29T17:42:04.378Z,20.25
2022-11-29T17:44:33.855Z,19.13
2022-11-29T17:47:01.543Z,19.60
2022-11-29T17:49:30.596Z,19.38
2022-11-29T17:51:58.496Z,21.60
2022-11-29T17:54:26.263Z,21.88
2022-11-29T17:56:54.155Z,21.75
2022-11-29T17:59:21.876Z,22.98
2022-11-29T18:01:49.780Z,21.65
2022-11-29T18:04:17.854Z,21.00
2022-11-29T18:06:50.259Z,20.98
2022-11-29T18:09:19.785Z,21.75
2022-11-29T18:11:50.302Z,21.65
2022-11-29T18:14:20.484Z,20.80
2022-11-29T18:16:48.626Z,20.77
2022-11-29T18:19:17.973Z,21.40
2022-11-29T18:21:47.442Z,23.10
2022-11-29T18:24:15.250Z,22.40
2022-11-29T18:26:43.310Z,21.27
2022-11-29T18:29:11.195Z,21.52
2022-11-29T18:31:40.926Z,19.77
2022-11-29T18:34:10.867Z,19.27
2022-11-29T18:36:42.655Z,19.95
2022-11-29T18:39:14.717Z,17.52
2022-11-29T18:41:43.893Z,21.30
2022-11-29T18:44:13.120Z,22.17
2022-11-29T18:46:43.012Z,19.60
2022-11-29T18:49:12.900Z,21.00
2022-11-29T18:51:42.691Z,19.75
2022-11-29T18:54:11.986Z,20.38
2022-11-29T18:56:40.237Z,20.50
2022-11-29T18:59:10.768Z,22.00
2022-11-29T19:01:42.415Z,21.10
2022-11-29T19:04:11.889Z,21.95
2022-11-29T19:06:40.366Z,19.48
2022-11-29T19:09:13.153Z,19.17
2022-11-29T19:11:41.210Z,20.08
2022-11-29T19:14:12.285Z,19.77
2022-11-29T19:16:41.426Z,20.00
2022-11-29T19:19:09.497Z,19.23
2022-11-29T19:21:39.079Z,19.63
2022-11-29T19:24:13.438Z,17.48
2022-11-29T19:26:44.558Z,19.10
2022-11-29T19:29:13.103Z,17.65
2022-11-29T19:31:41.216Z,19.98
2022-11-29T19:34:09.289Z,20.70
2022-11-29T19:36:42.637Z,20.83
2022-11-29T19:39:11.775Z,20.45
2022-11-29T19:41:39.680Z,24.92
2022-11-29T19:44:09.383Z,26.65
2022-11-29T19:46:39.082Z,27.83
2022-11-29T19:49:08.682Z,29.70
2022-11-29T19:51:37.385Z,24.10
2022-11-29T19:54:07.608Z,19.45
2022-11-29T19:56:35.790Z,19.05
2022-11-29T19:59:03.581Z,17.55
2022-11-29T20:01:40.226Z,19.42
2022-11-29T20:04:10.986Z,19.35
2022-11-29T20:06:39.563Z,19.48
2022-11-29T20:09:07.503Z,23.13
2022-11-29T20:11:35.754Z,23.05
2022-11-29T20:14:06.161Z,24.02
2022-11-29T20:16:36.615Z,25.63
2022-11-29T20:19:09.943Z,24.35
2022-11-29T20:21:43.127Z,22.98
2022-11-29T20:24:12.303Z,24.98
2022-11-29T20:26:41.612Z,27.83
2022-11-29T20:29:10.179Z,26.80
2022-11-29T20:31:44.524Z,26.85
2022-11-29T20:34:18.061Z,26.75
2022-11-29T20:36:58.676Z,27.63
2022-11-29T20:39:34.966Z,25.98
2022-11-29T20:42:27.414Z,24.20
2022-11-29T20:44:56.684Z,24.88
2022-11-29T20:47:28.284Z,24.08
2022-11-29T20:49:57.181Z,23.77
2022-11-29T20:52:34.657Z,21.92
2022-11-29T20:55:02.490Z,22.35
2022-11-29T20:57:30.359Z,25.58
2022-11-29T20:59:58.066Z,28.48
2022-11-29T21:02:27.264Z,30.70
2022-11-29T21:04:54.949Z,27.63
2022-11-29T21:07:22.699Z,23.58
2022-11-29T21:09:50.723Z,19.70
2022-11-29T21:12:18.883Z,21.23
2022-11-29T21:14:47.228Z,21.23
2022-11-29T21:17:15.774Z,20.33
2022-11-29T21:19:45.257Z,20.38
2022-11-29T21:22:20.245Z,16.45
2022-11-29T21:24:56.414Z,17.55
2022-11-29T21:27:31.261Z,16.83
2022-11-29T21:29:59.645Z,16.05
2022-11-29T21:32:28.404Z,17.38
2022-11-29T21:34:57.461Z,14.00
2022-11-29T21:37:28.011Z,14.45
2022-11-29T21:39:57.059Z,14.90
2022-11-29T21:42:24.814Z,15.55
2022-11-29T21:44:52.628Z,17.23
2022-11-29T21:47:20.377Z,18.52
2022-11-29T21:49:48.109Z,14.77
2022-11-29T21:52:22.241Z,15.48
2022-11-29T21:54:50.836Z,17.75
2022-11-29T21:57:18.520Z,17.73
2022-11-29T21:59:46.181Z,18.42
2022-11-29T22:02:14.198Z,16.88
2022-11-29T22:04:42.073Z,16.52
2022-11-29T22:07:10.033Z,14.52
2022-11-29T22:09:39.085Z,19.00
2022-11-29T22:12:32.037Z,17.98
2022-11-29T22:14:54.763Z,18.17
2022-11-29T22:17:22.514Z,21.55
2022-11-29T22:19:50.231Z,19.05
2022-11-29T22:22:18.002Z,19.55
2022-11-29T22:24:47.319Z,19.17
2022-11-29T22:27:17.586Z,20.40
2022-11-29T22:29:45.533Z,21.65
2022-11-29T22:32:14.606Z,23.40
2022-11-29T22:34:42.359Z,21.10
2022-11-29T22:37:10.073Z,20.95
2022-11-29T22:39:37.783Z,19.13
2022-11-29T22:42:06.825Z,17.08
2022-11-29T22:44:34.521Z,18.55
2022-11-29T22:47:02.254Z,15.68
2022-11-29T22:49:30.047Z,15.98
2022-11-29T22:51:57.778Z,16.20
2022-11-29T22:54:25.486Z,12.10
2022-11-29T22:56:53.190Z,13.30
2022-11-29T22:59:22.197Z,15.85
2022-11-29T23:01:49.972Z,14.38
2022-11-29T23:04:17.703Z,13.48
2022-11-29T23:06:46.512Z,13.90
2022-11-29T23:09:16.891Z,13.00
2022-11-29T23:11:50.730Z,12.98
2022-11-29T23:14:19.227Z,12.65
2022-11-29T23:16:48.456Z,11.27
2022-11-29T23:19:17.197Z,12.50
2022-11-29T23:21:46.075Z,12.00
2022-11-29T23:24:14.359Z,10.55
2022-11-29T23:26:45.257Z,11.13
2022-11-29T23:29:15.466Z,10.88
2022-11-29T23:31:43.509Z,8.70
2022-11-29T23:34:13.566Z,7.45
2022-11-29T23:36:41.459Z,9.40
2022-11-29T23:39:09.214Z,9.07
2022-11-29T23:41:37.525Z,8.15
2022-11-29T23:44:05.608Z,6.80
2022-11-29T23:46:33.814Z,7.88
2022-11-29T23:49:01.502Z,6.03
2022-11-29T23:51:30.801Z,7.72
2022-11-29T23:53:58.550Z,7.13
2022-11-29T23:56:26.366Z,7.10
2022-11-29T23:58:54.117Z,7.90
